Virtual Norwegian is not affiliated with Norwegian Air Shuttle in any way.
If you are looking for the real "Norwegian", or you wish to book Norwegian flights, please visit Norwegian.com


We use cookies to ensure you get the best experience on our website.   ACCEPT

ESNQ - KRN - Kiruna (Kiruna)

General Info Alternate Airport
ICAO: ESNQ Elevation: 1508 ft ICAO: ESPA
IATA: KRN Country: Sweden IATA: LLA
City: Kiruna Charts: Log in to view charts City: Lulea
Name: Kiruna Hub: No Name Kallax
General Info
ICAO: ESNQ
IATA: KRN
City: Kiruna
Name: Kiruna
Elevation: 1508 ft
Country: Sweden
Charts: Log in to view charts
Hub: No
 
Alternate Airport
ICAO: ESPA
IATA: LLA
City: Lulea
Name: Kallax

Weather
201220Z 22008KT CAVOK 18/07 Q1014
Weather
201220Z 22008KT CAVOK 18/07 Q1014

Runway Info
03
Length ILS/LOC Heading
2502 m N/A 034
21
Length ILS/LOC Course
2502 m 110.30 207

NOTAMs
NOTAMs currently unavailable.
NOTAMs
NOTAMs currently unavailable

Route map
Airport
Airport (hub)